sensor_id;sensor_type;location;lat;lon;timestamp;pressure;altitude;pressure_sealevel;temperature;humidity
4586;BME280;2305;50.118;8.952;2023-09-30T00:02:36;101315.25;;;18.42;100.00
4586;BME280;2305;50.118;8.952;2023-09-30T00:05:04;101316.38;;;18.39;100.00
4586;BME280;2305;50.118;8.952;2023-09-30T00:07:33;101323.84;;;18.36;100.00
4586;BME280;2305;50.118;8.952;2023-09-30T00:10:01;101325.41;;;18.29;100.00
4586;BME280;2305;50.118;8.952;2023-09-30T00:12:31;101326.16;;;18.31;100.00
4586;BME280;2305;50.118;8.952;2023-09-30T00:14:59;101331.06;;;18.26;100.00
4586;BME280;2305;50.118;8.952;2023-09-30T00:17:27;101342.88;;;18.23;100.00
4586;BME280;2305;50.118;8.952;2023-09-30T00:19:56;101353.53;;;18.23;100.00
4586;BME280;2305;50.118;8.952;2023-09-30T00:22:24;101352.94;;;18.29;100.00
4586;BME280;2305;50.118;8.952;2023-09-30T00:24:52;101360.28;;;18.27;100.00
4586;BME280;2305;50.118;8.952;2023-09-30T00:27:22;101360.97;;;18.29;100.00
4586;BME280;2305;50.118;8.952;2023-09-30T00:29:52;101366.75;;;18.25;100.00
4586;BME280;2305;50.118;8.952;2023-09-30T00:32:20;101369.28;;;18.26;100.00
4586;BME280;2305;50.118;8.952;2023-09-30T00:34:51;101366.59;;;18.26;100.00
4586;BME280;2305;50.118;8.952;2023-09-30T00:37:20;101371.06;;;18.35;100.00
4586;BME280;2305;50.118;8.952;2023-09-30T00:39:48;101377.41;;;18.25;100.00
4586;BME280;2305;50.118;8.952;2023-09-30T00:42:17;101374.88;;;18.23;100.00
4586;BME280;2305;50.118;8.952;2023-09-30T00:44:45;101381.09;;;18.24;100.00
4586;BME280;2305;50.118;8.952;2023-09-30T00:47:14;101382.94;;;18.14;100.00
4586;BME280;2305;50.118;8.952;2023-09-30T00:49:42;101387.59;;;18.12;100.00
4586;BME280;2305;50.118;8.952;2023-09-30T00:52:13;101390.41;;;18.10;100.00
4586;BME280;2305;50.118;8.952;2023-09-30T00:54:41;101403.28;;;18.15;100.00
4586;BME280;2305;50.118;8.952;2023-09-30T00:57:11;101404.28;;;18.14;100.00
4586;BME280;2305;50.118;8.952;2023-09-30T00:59:40;101396.69;;;18.19;100.00
4586;BME280;2305;50.118;8.952;2023-09-30T01:02:09;101391.66;;;18.16;100.00
4586;BME280;2305;50.118;8.952;2023-09-30T01:04:40;101389.25;;;18.13;100.00
4586;BME280;2305;50.118;8.952;2023-09-30T01:07:09;101390.00;;;18.05;100.00
4586;BME280;2305;50.118;8.952;2023-09-30T01:09:37;101390.44;;;18.01;100.00
4586;BME280;2305;50.118;8.952;2023-09-30T01:12:06;101394.94;;;18.00;100.00
4586;BME280;2305;50.118;8.952;2023-09-30T01:14:35;101398.06;;;17.96;100.00
4586;BME280;2305;50.118;8.952;2023-09-30T01:17:05;101393.97;;;17.92;100.00
4586;BME280;2305;50.118;8.952;2023-09-30T01:19:35;101397.53;;;17.83;100.00
4586;BME280;2305;50.118;8.952;2023-09-30T01:22:05;101398.09;;;17.77;100.00
4586;BME280;2305;50.118;8.952;2023-09-30T01:24:40;101403.75;;;17.74;100.00
4586;BME280;2305;50.118;8.952;2023-09-30T01:27:08;101408.22;;;17.73;100.00
4586;BME280;2305;50.118;8.952;2023-09-30T01:29:36;101408.22;;;17.73;100.00
4586;BME280;2305;50.118;8.952;2023-09-30T01:32:05;101414.09;;;17.77;100.00
4586;BME280;2305;50.118;8.952;2023-09-30T01:34:37;101414.09;;;17.77;100.00
4586;BME280;2305;50.118;8.952;2023-09-30T01:37:07;101413.97;;;17.69;100.00
4586;BME280;2305;50.118;8.952;2023-09-30T01:39:35;101407.97;;;17.67;100.00
4586;BME280;2305;50.118;8.952;2023-09-30T01:42:03;101412.19;;;17.69;100.00
4586;BME280;2305;50.118;8.952;2023-09-30T01:44:34;101409.63;;;17.68;100.00
4586;BME280;2305;50.118;8.952;2023-09-30T01:47:03;101401.91;;;17.65;100.00
4586;BME280;2305;50.118;8.952;2023-09-30T01:49:30;101400.53;;;17.61;100.00
4586;BME280;2305;50.118;8.952;2023-09-30T01:51:58;101407.69;;;17.60;100.00
4586;BME280;2305;50.118;8.952;2023-09-30T01:54:28;101415.41;;;17.54;100.00
4586;BME280;2305;50.118;8.952;2023-09-30T01:56:56;101402.66;;;17.48;100.00
4586;BME280;2305;50.118;8.952;2023-09-30T01:59:25;101394.78;;;17.46;100.00
4586;BME280;2305;50.118;8.952;2023-09-30T02:01:54;101399.44;;;17.44;100.00
4586;BME280;2305;50.118;8.952;2023-09-30T02:04:22;101399.88;;;17.40;100.00
4586;BME280;2305;50.118;8.952;2023-09-30T02:06:50;101390.19;;;17.39;100.00
4586;BME280;2305;50.118;8.952;2023-09-30T02:09:18;101384.41;;;17.34;100.00
4586;BME280;2305;50.118;8.952;2023-09-30T02:11:48;101392.72;;;17.31;100.00
4586;BME280;2305;50.118;8.952;2023-09-30T02:14:16;101390.19;;;17.29;100.00
4586;BME280;2305;50.118;8.952;2023-09-30T02:16:47;101394.81;;;17.27;100.00
4586;BME280;2305;50.118;8.952;2023-09-30T02:19:15;101401.53;;;17.22;100.00
4586;BME280;2305;50.118;8.952;2023-09-30T02:21:43;101409.94;;;17.17;100.00
4586;BME280;2305;50.118;8.952;2023-09-30T02:24:12;101419.59;;;17.18;100.00
4586;BME280;2305;50.118;8.952;2023-09-30T02:26:42;101416.53;;;17.13;100.00
4586;BME280;2305;50.118;8.952;2023-09-30T02:29:11;101422.31;;;17.09;100.00
4586;BME280;2305;50.118;8.952;2023-09-30T02:31:40;101427.19;;;17.04;100.00
4586;BME280;2305;50.118;8.952;2023-09-30T02:34:08;101429.16;;;17.02;100.00
4586;BME280;2305;50.118;8.952;2023-09-30T02:36:38;101431.09;;;17.00;100.00
4586;BME280;2305;50.118;8.952;2023-09-30T02:39:07;101436.59;;;16.98;100.00
4586;BME280;2305;50.118;8.952;2023-09-30T02:41:38;101440.19;;;16.97;100.00
4586;BME280;2305;50.118;8.952;2023-09-30T02:44:06;101435.88;;;16.96;100.00
4586;BME280;2305;50.118;8.952;2023-09-30T02:46:35;101434.88;;;16.97;100.00
4586;BME280;2305;50.118;8.952;2023-09-30T02:49:05;101433.38;;;16.95;100.00
4586;BME280;2305;50.118;8.952;2023-09-30T02:51:34;101432.91;;;16.90;100.00
4586;BME280;2305;50.118;8.952;2023-09-30T02:54:03;101424.50;;;16.85;100.00
4586;BME280;2305;50.118;8.952;2023-09-30T02:56:31;101428.56;;;16.79;100.00
4586;BME280;2305;50.118;8.952;2023-09-30T02:58:59;101435.69;;;16.79;100.00
4586;BME280;2305;50.118;8.952;2023-09-30T03:01:28;101435.69;;;16.79;100.00
4586;BME280;2305;50.118;8.952;2023-09-30T03:03:59;101445.34;;;16.80;100.00
4586;BME280;2305;50.118;8.952;2023-09-30T03:06:27;101451.53;;;16.80;100.00
4586;BME280;2305;50.118;8.952;2023-09-30T03:08:56;101465.97;;;16.78;100.00
4586;BME280;2305;50.118;8.952;2023-09-30T03:11:24;101470.72;;;16.74;100.00
4586;BME280;2305;50.118;8.952;2023-09-30T03:13:53;101474.38;;;16.73;100.00
4586;BME280;2305;50.118;8.952;2023-09-30T03:16:22;101478.25;;;16.69;100.00
4586;BME280;2305;50.118;8.952;2023-09-30T03:18:51;101466.34;;;16.64;100.00
4586;BME280;2305;50.118;8.952;2023-09-30T03:21:21;101457.94;;;16.59;100.00
4586;BME280;2305;50.118;8.952;2023-09-30T03:23:51;101454.84;;;16.54;100.00
4586;BME280;2305;50.118;8.952;2023-09-30T03:26:19;101451.59;;;16.50;100.00
4586;BME280;2305;50.118;8.952;2023-09-30T03:28:47;101451.03;;;16.47;100.00
4586;BME280;2305;50.118;8.952;2023-09-30T03:31:19;101445.84;;;16.45;100.00
4586;BME280;2305;50.118;8.952;2023-09-30T03:33:47;101441.78;;;16.41;100.00
4586;BME280;2305;50.118;8.952;2023-09-30T03:36:15;101455.78;;;16.43;100.00
4586;BME280;2305;50.118;8.952;2023-09-30T03:38:47;101456.91;;;16.41;100.00
4586;BME280;2305;50.118;8.952;2023-09-30T03:41:15;101453.25;;;16.42;100.00
4586;BME280;2305;50.118;8.952;2023-09-30T03:43:43;101446.81;;;16.44;100.00
4586;BME280;2305;50.118;8.952;2023-09-30T03:46:11;101465.16;;;16.47;100.00
4586;BME280;2305;50.118;8.952;2023-09-30T03:48:39;101474.88;;;16.48;100.00
4586;BME280;2305;50.118;8.952;2023-09-30T03:51:10;101482.69;;;16.50;100.00
4586;BME280;2305;50.118;8.952;2023-09-30T03:53:42;101480.19;;;16.48;100.00
4586;BME280;2305;50.118;8.952;2023-09-30T03:56:12;101488.16;;;16.48;100.00
4586;BME280;2305;50.118;8.952;2023-09-30T03:58:40;101477.78;;;16.45;100.00
4586;BME280;2305;50.118;8.952;2023-09-30T04:01:09;101481.53;;;16.43;100.00
4586;BME280;2305;50.118;8.952;2023-09-30T04:03:40;101481.94;;;16.38;100.00
4586;BME280;2305;50.118;8.952;2023-09-30T04:06:10;101476.00;;;16.35;100.00
4586;BME280;2305;50.118;8.952;2023-09-30T04:08:39;101489.31;;;16.35;100.00
4586;BME280;2305;50.118;8.952;2023-09-30T04:11:07;101490.28;;;16.34;100.00
4586;BME280;2305;50.118;8.952;2023-09-30T04:13:38;101490.56;;;16.31;100.00
4586;BME280;2305;50.118;8.952;2023-09-30T04:16:06;101486.34;;;16.28;100.00
4586;BME280;2305;50.118;8.952;2023-09-30T04:18:34;101481.16;;;16.27;100.00
4586;BME280;2305;50.118;8.952;2023-09-30T04:21:06;101478.50;;;16.27;100.00
4586;BME280;2305;50.118;8.952;2023-09-30T04:23:35;101485.22;;;16.21;100.00
4586;BME280;2305;50.118;8.952;2023-09-30T04:26:03;101494.28;;;16.19;100.00
4586;BME280;2305;50.118;8.952;2023-09-30T04:28:32;101484.47;;;16.19;100.00
4586;BME280;2305;50.118;8.952;2023-09-30T04:31:02;101490.53;;;16.21;100.00
4586;BME280;2305;50.118;8.952;2023-09-30T04:33:31;101499.19;;;16.23;100.00
4586;BME280;2305;50.118;8.952;2023-09-30T04:36:02;101494.00;;;16.22;100.00
4586;BME280;2305;50.118;8.952;2023-09-30T04:38:34;101510.25;;;16.19;100.00
4586;BME280;2305;50.118;8.952;2023-09-30T04:41:04;101499.28;;;16.12;100.00
4586;BME280;2305;50.118;8.952;2023-09-30T04:43:34;101486.84;;;16.13;100.00
4586;BME280;2305;50.118;8.952;2023-09-30T04:46:06;101513.31;;;16.14;100.00
4586;BME280;2305;50.118;8.952;2023-09-30T04:48:35;101515.38;;;16.11;100.00
4586;BME280;2305;50.118;8.952;2023-09-30T04:51:06;101508.50;;;16.08;100.00
4586;BME280;2305;50.118;8.952;2023-09-30T04:53:35;101514.06;;;16.05;100.00
4586;BME280;2305;50.118;8.952;2023-09-30T04:56:04;101509.41;;;15.98;100.00
4586;BME280;2305;50.118;8.952;2023-09-30T04:58:32;101502.41;;;15.97;100.00
4586;BME280;2305;50.118;8.952;2023-09-30T05:01:00;101507.84;;;15.95;100.00
4586;BME280;2305;50.118;8.952;2023-09-30T05:03:29;101505.19;;;15.95;100.00
4586;BME280;2305;50.118;8.952;2023-09-30T05:05:57;101507.97;;;15.94;100.00
4586;BME280;2305;50.118;8.952;2023-09-30T05:08:27;101497.22;;;15.95;100.00
4586;BME280;2305;50.118;8.952;2023-09-30T05:10:56;101500.84;;;15.94;100.00
4586;BME280;2305;50.118;8.952;2023-09-30T05:13:24;101506.31;;;15.93;100.00
4586;BME280;2305;50.118;8.952;2023-09-30T05:15:52;101508.13;;;15.92;100.00
4586;BME280;2305;50.118;8.952;2023-09-30T05:18:21;101509.94;;;15.92;100.00
4586;BME280;2305;50.118;8.952;2023-09-30T05:20:54;101518.88;;;15.91;100.00
4586;BME280;2305;50.118;8.952;2023-09-30T05:23:23;101507.66;;;15.87;100.00
4586;BME280;2305;50.118;8.952;2023-09-30T05:25:52;101502.75;;;15.83;100.00
4586;BME280;2305;50.118;8.952;2023-09-30T05:28:20;101501.88;;;15.82;100.00
4586;BME280;2305;50.118;8.952;2023-09-30T05:30:49;101504.22;;;15.76;100.00
4586;BME280;2305;50.118;8.952;2023-09-30T05:33:17;101506.31;;;15.72;100.00
4586;BME280;2305;50.118;8.952;2023-09-30T05:35:45;101515.00;;;15.74;100.00
4586;BME280;2305;50.118;8.952;2023-09-30T05:38:15;101521.66;;;15.69;100.00
4586;BME280;2305;50.118;8.952;2023-09-30T05:40:46;101520.81;;;15.68;100.00
4586;BME280;2305;50.118;8.952;2023-09-30T05:43:18;101531.72;;;15.65;100.00
4586;BME280;2305;50.118;8.952;2023-09-30T05:45:49;101539.81;;;15.64;100.00
4586;BME280;2305;50.118;8.952;2023-09-30T05:48:21;101541.75;;;15.62;100.00
4586;BME280;2305;50.118;8.952;2023-09-30T05:50:49;101534.28;;;15.56;100.00
4586;BME280;2305;50.118;8.952;2023-09-30T05:53:21;101538.16;;;15.52;100.00
4586;BME280;2305;50.118;8.952;2023-09-30T05:55:49;101534.78;;;15.50;100.00
4586;BME280;2305;50.118;8.952;2023-09-30T05:58:17;101539.63;;;15.45;100.00
4586;BME280;2305;50.118;8.952;2023-09-30T06:00:46;101541.34;;;15.46;100.00
4586;BME280;2305;50.118;8.952;2023-09-30T06:03:15;101540.38;;;15.47;100.00
4586;BME280;2305;50.118;8.952;2023-09-30T06:05:43;101546.28;;;15.50;100.00
4586;BME280;2305;50.118;8.952;2023-09-30T06:08:14;101537.44;;;15.50;100.00
4586;BME280;2305;50.118;8.952;2023-09-30T06:10:46;101538.31;;;15.50;100.00
4586;BME280;2305;50.118;8.952;2023-09-30T06:13:15;101543.72;;;15.49;100.00
4586;BME280;2305;50.118;8.952;2023-09-30T06:15:43;101544.44;;;15.51;100.00
4586;BME280;2305;50.118;8.952;2023-09-30T06:18:14;101567.13;;;15.55;100.00
4586;BME280;2305;50.118;8.952;2023-09-30T06:20:42;101554.56;;;15.57;100.00
4586;BME280;2305;50.118;8.952;2023-09-30T06:23:10;101559.50;;;15.61;100.00
4586;BME280;2305;50.118;8.952;2023-09-30T06:25:38;101546.94;;;15.63;100.00
4586;BME280;2305;50.118;8.952;2023-09-30T06:28:08;101545.81;;;15.66;100.00
4586;BME280;2305;50.118;8.952;2023-09-30T06:30:37;101557.91;;;15.70;100.00
4586;BME280;2305;50.118;8.952;2023-09-30T06:33:05;101554.84;;;15.74;100.00
4586;BME280;2305;50.118;8.952;2023-09-30T06:35:36;101559.34;;;15.74;100.00
4586;BME280;2305;50.118;8.952;2023-09-30T06:38:17;101571.38;;;15.78;100.00
4586;BME280;2305;50.118;8.952;2023-09-30T06:40:45;101562.44;;;15.79;100.00
4586;BME280;2305;50.118;8.952;2023-09-30T06:43:15;101579.72;;;15.84;100.00
4586;BME280;2305;50.118;8.952;2023-09-30T06:45:43;101576.91;;;15.86;100.00
4586;BME280;2305;50.118;8.952;2023-09-30T06:48:13;101581.00;;;15.90;100.00
4586;BME280;2305;50.118;8.952;2023-09-30T06:50:44;101589.81;;;15.90;100.00
4586;BME280;2305;50.118;8.952;2023-09-30T06:53:12;101587.03;;;15.92;100.00
4586;BME280;2305;50.118;8.952;2023-09-30T06:55:40;101579.75;;;15.94;100.00
4586;BME280;2305;50.118;8.952;2023-09-30T06:58:08;101594.38;;;15.99;100.00
4586;BME280;2305;50.118;8.952;2023-09-30T07:00:40;101603.88;;;16.02;100.00
4586;BME280;2305;50.118;8.952;2023-09-30T07:03:09;101606.44;;;16.03;100.00
4586;BME280;2305;50.118;8.952;2023-09-30T07:05:39;101608.47;;;16.11;100.00
4586;BME280;2305;50.118;8.952;2023-09-30T07:08:07;101597.16;;;16.18;100.00
4586;BME280;2305;50.118;8.952;2023-09-30T07:10:35;101594.84;;;16.25;100.00
4586;BME280;2305;50.118;8.952;2023-09-30T07:13:03;101604.81;;;16.32;100.00
4586;BME280;2305;50.118;8.952;2023-09-30T07:15:33;101599.72;;;16.40;100.00
4586;BME280;2305;50.118;8.952;2023-09-30T07:18:03;101598.59;;;16.43;100.00
4586;BME280;2305;50.118;8.952;2023-09-30T07:20:34;101594.44;;;16.50;100.00
4586;BME280;2305;50.118;8.952;2023-09-30T07:23:03;101595.19;;;16.52;100.00
4586;BME280;2305;50.118;8.952;2023-09-30T07:25:45;101602.75;;;16.56;100.00
4586;BME280;2305;50.118;8.952;2023-09-30T07:28:13;101608.66;;;16.60;100.00
4586;BME280;2305;50.118;8.952;2023-09-30T07:30:41;101607.00;;;16.59;100.00
4586;BME280;2305;50.118;8.952;2023-09-30T07:33:11;101605.72;;;16.63;100.00
4586;BME280;2305;50.118;8.952;2023-09-30T07:35:39;101608.00;;;16.67;100.00
4586;BME280;2305;50.118;8.952;2023-09-30T07:38:12;101619.66;;;16.76;100.00
4586;BME280;2305;50.118;8.952;2023-09-30T07:40:41;101611.97;;;16.82;100.00
4586;BME280;2305;50.118;8.952;2023-09-30T07:43:10;101617.63;;;16.89;100.00
4586;BME280;2305;50.118;8.952;2023-09-30T07:45:39;101607.41;;;16.94;100.00
4586;BME280;2305;50.118;8.952;2023-09-30T07:48:07;101610.38;;;17.00;100.00
4586;BME280;2305;50.118;8.952;2023-09-30T07:50:38;101602.69;;;17.07;100.00
4586;BME280;2305;50.118;8.952;2023-09-30T07:53:09;101596.81;;;17.13;100.00
4586;BME280;2305;50.118;8.952;2023-09-30T07:55:39;101605.25;;;17.18;100.00
4586;BME280;2305;50.118;8.952;2023-09-30T07:58:08;101590.53;;;17.23;100.00
4586;BME280;2305;50.118;8.952;2023-09-30T08:00:36;101591.69;;;17.30;100.00
4586;BME280;2305;50.118;8.952;2023-09-30T08:03:04;101591.13;;;17.36;100.00
4586;BME280;2305;50.118;8.952;2023-09-30T08:05:33;101598.28;;;17.36;100.00
4586;BME280;2305;50.118;8.952;2023-09-30T08:08:04;101597.88;;;17.40;100.00
4586;BME280;2305;50.118;8.952;2023-09-30T08:10:33;101597.50;;;17.45;100.00
4586;BME280;2305;50.118;8.952;2023-09-30T08:13:03;101595.25;;;17.50;100.00
4586;BME280;2305;50.118;8.952;2023-09-30T08:15:34;101588.81;;;17.52;100.00
4586;BME280;2305;50.118;8.952;2023-09-30T08:18:03;101599.06;;;17.57;100.00
4586;BME280;2305;50.118;8.952;2023-09-30T08:20:33;101601.16;;;17.63;100.00
4586;BME280;2305;50.118;8.952;2023-09-30T08:23:03;101599.63;;;17.70;100.00
4586;BME280;2305;50.118;8.952;2023-09-30T08:25:31;101613.09;;;17.78;100.00
4586;BME280;2305;50.118;8.952;2023-09-30T08:27:59;101603.56;;;17.85;100.00
4586;BME280;2305;50.118;8.952;2023-09-30T08:30:27;101606.78;;;17.88;100.00
4586;BME280;2305;50.118;8.952;2023-09-30T08:32:55;101614.09;;;17.96;100.00
4586;BME280;2305;50.118;8.952;2023-09-30T08:35:23;101607.91;;;18.05;100.00
4586;BME280;2305;50.118;8.952;2023-09-30T08:37:51;101604.38;;;18.04;100.00
4586;BME280;2305;50.118;8.952;2023-09-30T08:40:21;101616.34;;;18.10;100.00
4586;BME280;2305;50.118;8.952;2023-09-30T08:42:51;101614.06;;;18.15;100.00
4586;BME280;2305;50.118;8.952;2023-09-30T08:45:20;101624.19;;;18.21;100.00
4586;BME280;2305;50.118;8.952;2023-09-30T08:47:52;101620.69;;;18.30;100.00
4586;BME280;2305;50.118;8.952;2023-09-30T08:50:20;101624.91;;;18.32;100.00
4586;BME280;2305;50.118;8.952;2023-09-30T08:52:50;101626.88;;;18.40;100.00
4586;BME280;2305;50.118;8.952;2023-09-30T08:55:21;101634.44;;;18.44;100.00
4586;BME280;2305;50.118;8.952;2023-09-30T08:57:50;101635.00;;;18.48;100.00
4586;BME280;2305;50.118;8.952;2023-09-30T09:00:20;101631.63;;;18.55;100.00
4586;BME280;2305;50.118;8.952;2023-09-30T09:02:49;101634.00;;;18.58;100.00
4586;BME280;2305;50.118;8.952;2023-09-30T09:05:17;101624.28;;;18.67;100.00
4586;BME280;2305;50.118;8.952;2023-09-30T09:07:48;101621.03;;;18.73;100.00
4586;BME280;2305;50.118;8.952;2023-09-30T09:10:21;101620.88;;;18.74;100.00
4586;BME280;2305;50.118;8.952;2023-09-30T09:12:54;101625.06;;;18.77;100.00
4586;BME280;2305;50.118;8.952;2023-09-30T09:15:24;101636.75;;;18.76;100.00
4586;BME280;2305;50.118;8.952;2023-09-30T09:17:55;101627.47;;;18.80;100.00
4586;BME280;2305;50.118;8.952;2023-09-30T09:20:24;101634.59;;;18.88;100.00
4586;BME280;2305;50.118;8.952;2023-09-30T09:22:54;101643.81;;;19.03;100.00
4586;BME280;2305;50.118;8.952;2023-09-30T09:25:24;101644.31;;;19.16;100.00
4586;BME280;2305;50.118;8.952;2023-09-30T09:27:53;101644.00;;;19.29;100.00
4586;BME280;2305;50.118;8.952;2023-09-30T09:30:24;101651.91;;;19.30;100.00
4586;BME280;2305;50.118;8.952;2023-09-30T09:32:54;101645.94;;;19.36;100.00
4586;BME280;2305;50.118;8.952;2023-09-30T09:35:22;101634.03;;;19.48;100.00
4586;BME280;2305;50.118;8.952;2023-09-30T09:37:56;101639.88;;;19.61;100.00
4586;BME280;2305;50.118;8.952;2023-09-30T09:40:28;101647.31;;;19.67;100.00
4586;BME280;2305;50.118;8.952;2023-09-30T09:42:57;101647.38;;;19.75;100.00
4586;BME280;2305;50.118;8.952;2023-09-30T09:45:27;101644.03;;;19.73;100.00
4586;BME280;2305;50.118;8.952;2023-09-30T09:48:00;101650.72;;;19.77;100.00
4586;BME280;2305;50.118;8.952;2023-09-30T09:50:32;101644.56;;;19.94;100.00
4586;BME280;2305;50.118;8.952;2023-09-30T09:53:00;101653.16;;;20.15;100.00
4586;BME280;2305;50.118;8.952;2023-09-30T09:55:32;101657.25;;;20.27;100.00
4586;BME280;2305;50.118;8.952;2023-09-30T09:58:02;101647.53;;;20.44;100.00
4586;BME280;2305;50.118;8.952;2023-09-30T10:00:31;101643.91;;;20.53;100.00
4586;BME280;2305;50.118;8.952;2023-09-30T10:03:02;101647.19;;;20.64;100.00
4586;BME280;2305;50.118;8.952;2023-09-30T10:05:30;101636.66;;;20.71;100.00
4586;BME280;2305;50.118;8.952;2023-09-30T10:08:01;101638.34;;;20.72;100.00
4586;BME280;2305;50.118;8.952;2023-09-30T10:10:35;101622.59;;;20.69;100.00
4586;BME280;2305;50.118;8.952;2023-09-30T10:13:04;101623.28;;;20.71;100.00
4586;BME280;2305;50.118;8.952;2023-09-30T10:15:39;101621.06;;;20.66;100.00
4586;BME280;2305;50.118;8.952;2023-09-30T10:18:10;101611.34;;;20.65;100.00
4586;BME280;2305;50.118;8.952;2023-09-30T10:20:43;101608.09;;;20.79;100.00
4586;BME280;2305;50.118;8.952;2023-09-30T10:23:26;101604.16;;;20.91;100.00
4586;BME280;2305;50.118;8.952;2023-09-30T10:26:16;101604.63;;;20.87;100.00
4586;BME280;2305;50.118;8.952;2023-09-30T10:28:49;101602.84;;;20.70;100.00
4586;BME280;2305;50.118;8.952;2023-09-30T10:31:18;101600.06;;;20.54;100.00
4586;BME280;2305;50.118;8.952;2023-09-30T10:34:21;101592.19;;;20.52;100.00
4586;BME280;2305;50.118;8.952;2023-09-30T10:36:50;101588.03;;;20.58;100.00
4586;BME280;2305;50.118;8.952;2023-09-30T10:39:58;101602.69;;;20.71;100.00
4586;BME280;2305;50.118;8.952;2023-09-30T10:42:48;101595.38;;;20.81;100.00
4586;BME280;2305;50.118;8.952;2023-09-30T10:45:42;101595.13;;;20.92;100.00
4586;BME280;2305;50.118;8.952;2023-09-30T10:48:34;101600.19;;;21.03;100.00
4586;BME280;2305;50.118;8.952;2023-09-30T10:51:14;101592.69;;;21.15;100.00
4586;BME280;2305;50.118;8.952;2023-09-30T10:53:44;101598.59;;;21.26;100.00
4586;BME280;2305;50.118;8.952;2023-09-30T10:56:15;101591.53;;;21.17;100.00
4586;BME280;2305;50.118;8.952;2023-09-30T10:58:46;101596.19;;;21.07;100.00
4586;BME280;2305;50.118;8.952;2023-09-30T11:01:16;101592.28;;;20.94;100.00
4586;BME280;2305;50.118;8.952;2023-09-30T11:03:46;101592.03;;;20.79;100.00
4586;BME280;2305;50.118;8.952;2023-09-30T11:06:17;101596.84;;;20.76;100.00
4586;BME280;2305;50.118;8.952;2023-09-30T11:08:51;101591.94;;;20.89;100.00
4586;BME280;2305;50.118;8.952;2023-09-30T11:11:19;101590.44;;;20.94;100.00
4586;BME280;2305;50.118;8.952;2023-09-30T11:14:00;101596.22;;;21.15;100.00
4586;BME280;2305;50.118;8.952;2023-09-30T11:16:28;101586.03;;;21.27;100.00
4586;BME280;2305;50.118;8.952;2023-09-30T11:18:56;101582.88;;;21.39;100.00
4586;BME280;2305;50.118;8.952;2023-09-30T11:21:25;101601.00;;;21.45;100.00
4586;BME280;2305;50.118;8.952;2023-09-30T11:23:53;101603.56;;;21.55;100.00
4586;BME280;2305;50.118;8.952;2023-09-30T11:26:29;101606.44;;;21.69;100.00
4586;BME280;2305;50.118;8.952;2023-09-30T11:29:06;101603.13;;;21.91;100.00
4586;BME280;2305;50.118;8.952;2023-09-30T11:31:37;101604.81;;;22.08;100.00
4586;BME280;2305;50.118;8.952;2023-09-30T11:34:07;101604.81;;;22.16;100.00
4586;BME280;2305;50.118;8.952;2023-09-30T11:36:37;101592.75;;;22.20;100.00
4586;BME280;2305;50.118;8.952;2023-09-30T11:39:06;101590.88;;;22.29;100.00
4586;BME280;2305;50.118;8.952;2023-09-30T11:41:37;101572.75;;;22.39;100.00
4586;BME280;2305;50.118;8.952;2023-09-30T11:44:09;101570.56;;;22.50;100.00
4586;BME280;2305;50.118;8.952;2023-09-30T11:46:48;101569.69;;;22.58;100.00
4586;BME280;2305;50.118;8.952;2023-09-30T11:49:28;101569.19;;;22.70;100.00
4586;BME280;2305;50.118;8.952;2023-09-30T11:51:57;101578.22;;;22.77;100.00
4586;BME280;2305;50.118;8.952;2023-09-30T11:54:31;101584.38;;;22.86;100.00
4586;BME280;2305;50.118;8.952;2023-09-30T11:57:00;101583.91;;;22.82;100.00
4586;BME280;2305;50.118;8.952;2023-09-30T11:59:33;101588.13;;;22.77;96.61
4586;BME280;2305;50.118;8.952;2023-09-30T12:02:02;101588.84;;;22.63;100.00
4586;BME280;2305;50.118;8.952;2023-09-30T12:04:42;101588.00;;;22.70;100.00
4586;BME280;2305;50.118;8.952;2023-09-30T12:07:12;101575.22;;;22.72;100.00
4586;BME280;2305;50.118;8.952;2023-09-30T12:09:44;101572.84;;;22.77;100.00
4586;BME280;2305;50.118;8.952;2023-09-30T12:12:17;101565.41;;;22.87;100.00
4586;BME280;2305;50.118;8.952;2023-09-30T12:14:47;101566.75;;;22.91;100.00
4586;BME280;2305;50.118;8.952;2023-09-30T12:17:17;101559.66;;;22.90;100.00
4586;BME280;2305;50.118;8.952;2023-09-30T12:19:48;101558.13;;;23.04;100.00
4586;BME280;2305;50.118;8.952;2023-09-30T12:22:16;101565.47;;;23.18;100.00
4586;BME280;2305;50.118;8.952;2023-09-30T12:24:45;101564.09;;;23.22;100.00
4586;BME280;2305;50.118;8.952;2023-09-30T12:27:13;101547.25;;;23.28;100.00
4586;BME280;2305;50.118;8.952;2023-09-30T12:29:44;101555.47;;;23.34;95.20
4586;BME280;2305;50.118;8.952;2023-09-30T12:32:14;101548.31;;;23.19;89.84
4586;BME280;2305;50.118;8.952;2023-09-30T12:34:43;101550.53;;;23.15;88.71
4586;BME280;2305;50.118;8.952;2023-09-30T12:37:11;101551.34;;;23.16;94.69
4586;BME280;2305;50.118;8.952;2023-09-30T12:39:42;101548.09;;;23.28;88.46
4586;BME280;2305;50.118;8.952;2023-09-30T12:42:14;101544.03;;;23.32;90.84
4586;BME280;2305;50.118;8.952;2023-09-30T12:44:42;101534.38;;;23.46;94.20
4586;BME280;2305;50.118;8.952;2023-09-30T12:47:10;101538.84;;;23.53;93.23
4586;BME280;2305;50.118;8.952;2023-09-30T12:49:41;101534.47;;;23.52;91.45
4586;BME280;2305;50.118;8.952;2023-09-30T12:52:09;101535.13;;;23.54;89.67
4586;BME280;2305;50.118;8.952;2023-09-30T12:54:39;101533.06;;;23.64;86.16
4586;BME280;2305;50.118;8.952;2023-09-30T12:57:07;101532.03;;;23.65;85.44
4586;BME280;2305;50.118;8.952;2023-09-30T12:59:35;101536.31;;;23.74;89.79
4586;BME280;2305;50.118;8.952;2023-09-30T13:02:03;101538.91;;;23.90;93.27
4586;BME280;2305;50.118;8.952;2023-09-30T13:04:32;101534.22;;;24.07;93.97
4586;BME280;2305;50.118;8.952;2023-09-30T13:07:01;101532.41;;;24.22;93.85
4586;BME280;2305;50.118;8.952;2023-09-30T13:09:30;101526.66;;;24.39;94.97
4586;BME280;2305;50.118;8.952;2023-09-30T13:11:58;101538.59;;;24.59;94.90
4586;BME280;2305;50.118;8.952;2023-09-30T13:14:27;101540.28;;;24.74;93.74
4586;BME280;2305;50.118;8.952;2023-09-30T13:16:55;101532.66;;;24.78;90.82